Time;durP1;ratioP1;P1;durP2;ratioP2;P2;SDS_P1;SDS_P2;PMS_P1;PMS_P2;Temp;Humidity;BMP_temperature;BMP_pressure;BME280_temperature;BME280_humidity;BME280_pressure;Samples;Min_cycle;Max_cycle;Signal;HPM_P1;HPM_P2
2021/12/27 00:01:51;;;;;;;15.00;9.93;;;7.10;75.60;;;;;;5020129;28;20030;-23
2021/12/27 00:04:17;;;;;;;21.38;13.70;;;7.00;75.50;;;;;;5019333;28;20030;-24
2021/12/27 00:06:43;;;;;;;21.92;15.25;;;7.00;75.50;;;;;;5019478;28;20042;-23
2021/12/27 00:09:09;;;;;;;16.30;11.20;;;7.00;75.50;;;;;;5018193;28;20479;-23
2021/12/27 00:11:35;;;;;;;17.55;10.13;;;7.00;75.50;;;;;;5019455;28;20116;-23
2021/12/27 00:14:01;;;;;;;41.67;27.05;;;7.00;75.40;;;;;;5018071;28;20034;-23
2021/12/27 00:16:27;;;;;;;33.92;21.90;;;6.90;75.40;;;;;;5019173;28;20037;-23
2021/12/27 00:18:53;;;;;;;45.63;27.35;;;6.90;75.40;;;;;;5019365;28;20033;-23
2021/12/27 00:21:19;;;;;;;50.70;36.00;;;6.90;75.50;;;;;;5019649;28;20033;-23
2021/12/27 00:23:45;;;;;;;40.35;27.05;;;6.80;75.50;;;;;;5019460;28;20026;-23
2021/12/27 00:26:11;;;;;;;21.33;15.32;;;6.80;75.40;;;;;;5019010;28;20108;-23
2021/12/27 00:28:37;;;;;;;27.23;18.88;;;6.70;75.40;;;;;;5019240;28;20037;-25
2021/12/27 00:31:03;;;;;;;17.42;10.52;;;6.70;75.40;;;;;;5019318;28;20022;-24
2021/12/27 00:33:29;;;;;;;50.13;35.03;;;6.60;75.50;;;;;;5017938;28;20034;-25
2021/12/27 00:35:55;;;;;;;21.63;15.57;;;6.50;75.50;;;;;;5016128;28;20033;-25
2021/12/27 00:38:22;;;;;;;28.00;18.80;;;6.50;75.60;;;;;;5014663;28;20033;-25
2021/12/27 00:40:49;;;;;;;18.10;11.70;;;6.40;75.60;;;;;;5015970;28;20084;-25
2021/12/27 00:43:16;;;;;;;17.85;11.38;;;6.40;75.70;;;;;;5014735;28;20036;-25
2021/12/27 00:45:43;;;;;;;29.00;20.10;;;6.30;75.70;;;;;;5016046;28;20068;-24
2021/12/27 00:48:09;;;;;;;14.73;10.27;;;6.30;75.70;;;;;;5016258;28;20034;-24
2021/12/27 00:50:36;;;;;;;17.40;11.43;;;6.20;75.70;;;;;;5015571;28;20236;-24
2021/12/27 00:53:03;;;;;;;49.55;36.55;;;6.20;75.70;;;;;;5015604;28;20080;-24
2021/12/27 00:55:28;;;;;;;28.52;19.95;;;6.10;75.80;;;;;;5015739;28;20033;-24
2021/12/27 00:57:55;;;;;;;14.77;9.52;;;6.10;75.90;;;;;;5015761;28;20032;-24
2021/12/27 01:00:25;;;;;;;15.70;10.93;;;6.10;75.80;;;;;;5015474;28;20026;-25
2021/12/27 01:02:53;;;;;;;38.15;29.65;;;6.10;75.90;;;;;;5015965;28;20022;-23
2021/12/27 01:05:21;;;;;;;18.05;12.77;;;6.00;75.90;;;;;;5015603;28;20018;-23
2021/12/27 01:07:47;;;;;;;26.60;19.90;;;6.00;76.00;;;;;;5015541;28;20030;-23
2021/12/27 01:13:01;;;;;;;48.30;35.58;;;5.90;76.00;;;;;;5015997;28;20555;-23
2021/12/27 01:18:04;;;;;;;38.30;26.45;;;5.90;76.30;;;;;;5015770;28;20470;-23
2021/12/27 01:20:31;;;;;;;33.50;23.13;;;5.90;76.30;;;;;;5015445;28;20025;-23
2021/12/27 01:22:57;;;;;;;37.00;25.17;;;5.90;76.20;;;;;;5015230;28;20029;-26
2021/12/27 01:25:24;;;;;;;41.50;26.35;;;5.80;76.20;;;;;;5016185;28;20014;-25
2021/12/27 01:27:52;;;;;;;31.20;21.92;;;5.80;76.30;;;;;;5015165;28;20030;-25
2021/12/27 01:30:20;;;;;;;33.85;25.60;;;5.80;76.20;;;;;;5015148;28;20109;-24
2021/12/27 01:32:55;;;;;;;58.35;43.08;;;5.70;76.40;;;;;;5015427;28;20030;-24
2021/12/27 01:35:22;;;;;;;37.45;26.75;;;5.70;76.30;;;;;;5015317;28;20108;-24
2021/12/27 01:37:51;;;;;;;39.42;29.55;;;5.70;76.60;;;;;;5015266;28;20485;-24
2021/12/27 01:40:21;;;;;;;27.05;16.58;;;5.60;76.60;;;;;;5014640;28;20482;-24
2021/12/27 01:43:00;;;;;;;15.98;10.90;;;5.60;76.60;;;;;;5015251;28;20394;-23
2021/12/27 01:45:27;;;;;;;15.52;10.45;;;5.70;76.50;;;;;;5014639;28;20030;-23
2021/12/27 01:47:53;;;;;;;26.83;18.95;;;5.70;76.60;;;;;;5014068;28;20037;-24
2021/12/27 01:50:19;;;;;;;41.72;28.15;;;5.70;76.70;;;;;;5014491;28;20029;-24
2021/12/27 01:52:45;;;;;;;38.60;28.77;;;5.70;77.00;;;;;;5014905;28;20026;-23
2021/12/27 01:55:11;;;;;;;31.52;23.90;;;5.70;76.90;;;;;;5014516;28;20022;-23
2021/12/27 01:57:37;;;;;;;35.00;23.50;;;5.70;76.80;;;;;;5014648;28;20084;-24
2021/12/27 02:00:06;;;;;;;48.83;35.40;;;5.70;76.90;;;;;;5014543;28;20023;-23
2021/12/27 02:02:32;;;;;;;42.47;30.58;;;5.80;76.70;;;;;;5014691;28;20049;-23
2021/12/27 02:04:58;;;;;;;32.97;22.92;;;5.80;77.70;;;;;;5015220;28;20022;-23
2021/12/27 02:07:24;;;;;;;25.88;18.00;;;5.80;77.10;;;;;;5014564;28;20030;-24
2021/12/27 02:10:01;;;;;;;37.45;27.42;;;5.80;77.00;;;;;;5014497;28;20030;-23
2021/12/27 02:12:29;;;;;;;34.33;23.35;;;5.80;76.90;;;;;;5013111;28;20502;-24
2021/12/27 02:14:55;;;;;;;52.78;38.03;;;5.90;76.80;;;;;;5014415;28;20065;-23
2021/12/27 02:17:22;;;;;;;26.23;17.63;;;5.90;76.80;;;;;;5014602;28;20041;-23
2021/12/27 02:19:50;;;;;;;37.03;26.52;;;6.00;76.80;;;;;;5014193;28;20026;-23
2021/12/27 02:22:17;;;;;;;18.60;13.10;;;6.00;76.70;;;;;;5014008;28;20394;-23
2021/12/27 02:24:43;;;;;;;17.45;12.50;;;6.10;76.70;;;;;;5014284;28;20061;-23
2021/12/27 02:27:13;;;;;;;28.55;19.65;;;6.10;76.60;;;;;;5014304;28;20056;-23
2021/12/27 02:29:39;;;;;;;24.13;17.23;;;6.10;76.40;;;;;;5012822;28;20156;-23
2021/12/27 02:32:06;;;;;;;36.38;26.13;;;6.10;76.70;;;;;;5014263;28;20426;-23
2021/12/27 02:34:32;;;;;;;18.95;14.25;;;6.20;76.60;;;;;;5014042;28;20022;-23
2021/12/27 02:36:59;;;;;;;14.77;9.55;;;6.20;76.50;;;;;;5012677;28;20041;-24
2021/12/27 02:39:28;;;;;;;16.85;10.85;;;6.20;76.40;;;;;;5012724;28;20038;-24
2021/12/27 02:41:55;;;;;;;16.05;12.45;;;6.30;76.30;;;;;;5014173;28;20034;-25
2021/12/27 02:44:21;;;;;;;14.27;9.48;;;6.40;76.20;;;;;;5013928;28;20143;-24
2021/12/27 02:46:47;;;;;;;15.38;11.20;;;6.40;76.10;;;;;;5012581;28;20247;-24
2021/12/27 02:49:14;;;;;;;16.30;12.05;;;6.50;76.00;;;;;;5013759;28;20105;-24
2021/12/27 02:51:40;;;;;;;20.33;14.55;;;6.50;75.90;;;;;;5013952;28;20057;-24
2021/12/27 02:54:06;;;;;;;17.38;12.50;;;6.50;75.90;;;;;;5013284;28;20537;-23
2021/12/27 02:56:33;;;;;;;36.50;24.70;;;6.60;75.80;;;;;;5013166;28;20029;-23
2021/12/27 02:58:59;;;;;;;49.28;34.38;;;6.60;75.80;;;;;;5013620;28;20104;-23
2021/12/27 03:01:26;;;;;;;29.20;20.92;;;6.60;75.80;;;;;;5013520;28;20104;-23
2021/12/27 03:03:53;;;;;;;32.42;22.77;;;6.60;75.70;;;;;;5014160;28;20030;-23
2021/12/27 03:06:19;;;;;;;31.50;23.42;;;6.60;75.80;;;;;;5013827;28;20018;-24
2021/12/27 03:08:47;;;;;;;45.10;30.98;;;6.60;75.80;;;;;;5013726;28;20080;-23
2021/12/27 03:11:14;;;;;;;25.92;17.10;;;6.60;76.00;;;;;;5013506;28;20479;-23
2021/12/27 03:13:48;;;;;;;40.75;28.55;;;6.60;76.00;;;;;;5013300;28;20413;-23
2021/12/27 03:16:16;;;;;;;30.67;22.48;;;6.60;76.30;;;;;;5013542;28;20048;-24
2021/12/27 03:18:46;;;;;;;38.15;27.05;;;6.60;76.20;;;;;;5013294;28;20065;-23
2021/12/27 03:21:13;;;;;;;50.40;35.35;;;6.60;76.20;;;;;;5013348;28;20061;-24
2021/12/27 03:23:41;;;;;;;31.75;23.33;;;6.60;76.30;;;;;;5013369;28;20524;-23
2021/12/27 03:26:08;;;;;;;37.53;25.80;;;6.60;76.10;;;;;;5013560;28;20048;-23
2021/12/27 03:28:37;;;;;;;15.35;10.68;;;6.60;76.00;;;;;;5013376;28;20386;-23
2021/12/27 03:31:03;;;;;;;15.07;9.98;;;6.60;75.90;;;;;;5013549;28;20033;-23
2021/12/27 03:33:31;;;;;;;28.50;20.05;;;6.60;75.90;;;;;;5013053;28;20126;-23
2021/12/27 03:36:03;;;;;;;34.35;25.63;;;6.70;76.00;;;;;;5012030;28;20030;-23
2021/12/27 03:38:52;;;;;;;41.70;29.30;;;6.70;75.90;;;;;;5013340;28;20105;-23
2021/12/27 03:41:22;;;;;;;32.90;22.77;;;6.70;76.00;;;;;;5013161;28;20059;-26
2021/12/27 03:43:48;;;;;;;16.40;11.02;;;6.70;76.00;;;;;;5013899;28;20026;-26
2021/12/27 03:46:15;;;;;;;20.30;12.93;;;6.80;76.00;;;;;;5013145;28;20395;-25
2021/12/27 03:48:42;;;;;;;17.40;11.88;;;6.80;75.90;;;;;;5013375;28;20034;-24
2021/12/27 03:51:08;;;;;;;14.70;10.13;;;6.80;75.90;;;;;;5013109;28;20026;-23
2021/12/27 03:53:35;;;;;;;13.55;8.50;;;6.90;75.80;;;;;;5012867;28;20038;-24
2021/12/27 03:56:02;;;;;;;15.05;10.57;;;6.90;75.70;;;;;;5012949;28;20549;-24
2021/12/27 03:58:33;;;;;;;18.13;12.05;;;6.90;75.70;;;;;;5012801;28;20030;-24
2021/12/27 04:01:16;;;;;;;22.98;16.33;;;6.90;75.60;;;;;;5013553;28;20454;-23
2021/12/27 04:03:44;;;;;;;13.23;8.50;;;6.90;75.60;;;;;;5013298;28;20034;-24
2021/12/27 04:06:12;;;;;;;26.50;18.35;;;6.90;75.50;;;;;;5011922;28;20382;-23
2021/12/27 04:08:38;;;;;;;32.53;22.50;;;6.90;75.60;;;;;;5014892;28;20025;-24
2021/12/27 04:11:05;;;;;;;25.38;16.95;;;6.90;75.80;;;;;;5016566;28;20122;-25
2021/12/27 04:13:31;;;;;;;39.53;27.25;;;6.90;75.80;;;;;;5016661;28;20026;-24
2021/12/27 04:15:57;;;;;;;28.60;20.02;;;6.90;75.90;;;;;;5016717;28;20433;-25
2021/12/27 04:18:23;;;;;;;23.23;15.45;;;6.90;75.90;;;;;;5016509;28;20058;-23
2021/12/27 04:20:49;;;;;;;31.00;20.58;;;6.90;75.80;;;;;;5016702;28;20054;-24
2021/12/27 04:23:16;;;;;;;14.82;10.35;;;6.90;75.80;;;;;;5016987;28;20486;-24
2021/12/27 04:25:42;;;;;;;12.27;8.38;;;6.90;75.70;;;;;;5016314;28;20481;-23
2021/12/27 04:28:09;;;;;;;14.68;9.43;;;6.90;75.60;;;;;;5017184;28;20532;-23
2021/12/27 04:30:35;;;;;;;15.38;9.85;;;6.90;75.60;;;;;;5016932;28;20077;-23
2021/12/27 04:33:02;;;;;;;13.75;9.20;;;6.90;75.50;;;;;;5016677;28;20080;-25
2021/12/27 04:35:28;;;;;;;13.55;9.65;;;6.90;75.60;;;;;;5016393;28;20107;-23
2021/12/27 04:37:55;;;;;;;15.20;11.02;;;6.90;75.50;;;;;;5016087;28;20037;-25
2021/12/27 04:40:22;;;;;;;13.50;8.82;;;6.90;75.50;;;;;;5015775;28;20030;-23
2021/12/27 04:42:53;;;;;;;18.65;13.73;;;6.90;75.50;;;;;;5016668;28;20022;-23
2021/12/27 04:45:19;;;;;;;18.13;12.15;;;6.90;75.50;;;;;;5016222;28;20481;-23
2021/12/27 04:47:46;;;;;;;27.67;19.48;;;6.90;75.50;;;;;;5015949;28;20050;-23
2021/12/27 04:50:14;;;;;;;24.08;18.02;;;6.90;75.60;;;;;;5014510;28;20035;-24
2021/12/27 05:46:45;;;;;;;9.18;5.50;;;6.60;75.40;;;;;;3336905;28;22939;-30
2021/12/27 05:49:11;;;;;;;16.00;9.73;;;6.60;75.40;;;;;;5014184;28;20041;-23
2021/12/27 05:51:37;;;;;;;10.68;7.75;;;6.60;75.50;;;;;;5015064;28;20466;-23
2021/12/27 05:54:06;;;;;;;9.23;5.53;;;6.60;75.50;;;;;;5014933;28;20034;-23
2021/12/27 05:56:32;;;;;;;8.52;5.60;;;6.60;75.50;;;;;;5014374;28;20035;-23
2021/12/27 05:58:58;;;;;;;11.82;8.00;;;6.60;75.50;;;;;;5015210;28;20022;-24
2021/12/27 06:01:24;;;;;;;11.05;6.45;;;6.60;75.50;;;;;;5014575;28;20524;-24
2021/12/27 06:03:50;;;;;;;8.40;4.97;;;6.60;75.50;;;;;;5014841;28;20030;-23
2021/12/27 06:06:16;;;;;;;8.57;5.25;;;6.60;75.50;;;;;;5014594;28;20522;-25
2021/12/27 06:08:43;;;;;;;15.55;10.23;;;6.60;75.50;;;;;;5014780;28;20030;-25
2021/12/27 06:11:09;;;;;;;10.70;5.70;;;6.60;75.40;;;;;;5014261;28;20414;-24
2021/12/27 06:13:35;;;;;;;12.80;8.55;;;6.50;75.40;;;;;;5014295;28;20029;-24
2021/12/27 06:16:01;;;;;;;11.15;6.97;;;6.50;75.40;;;;;;5014281;28;20125;-23
2021/12/27 06:18:27;;;;;;;8.82;5.35;;;6.50;75.40;;;;;;5014524;28;20108;-23
2021/12/27 06:20:52;;;;;;;11.77;8.05;;;6.50;75.40;;;;;;5014196;28;20450;-23
2021/12/27 06:23:19;;;;;;;16.40;10.85;;;6.40;75.50;;;;;;5014560;28;20104;-24
2021/12/27 06:25:45;;;;;;;13.88;8.85;;;6.40;75.70;;;;;;5014046;28;20120;-25
2021/12/27 06:28:11;;;;;;;11.02;6.68;;;6.40;75.70;;;;;;5014417;28;20057;-24
2021/12/27 06:30:37;;;;;;;10.70;7.50;;;6.40;75.70;;;;;;5014268;28;20033;-24
2021/12/27 06:33:06;;;;;;;11.80;7.50;;;6.40;75.70;;;;;;5012805;28;20371;-25
2021/12/27 06:35:33;;;;;;;10.00;6.05;;;6.40;75.70;;;;;;5014177;28;20041;-24
2021/12/27 06:37:59;;;;;;;11.55;7.15;;;6.40;75.70;;;;;;5014137;28;20390;-24
2021/12/27 06:40:28;;;;;;;11.95;7.53;;;6.40;75.70;;;;;;5013856;28;20032;-23
2021/12/27 06:42:54;;;;;;;13.20;9.02;;;6.40;75.90;;;;;;5013838;28;20021;-25
2021/12/27 06:45:22;;;;;;;8.88;6.45;;;6.40;75.80;;;;;;5013821;28;20033;-25
2021/12/27 06:47:48;;;;;;;17.40;10.88;;;6.40;75.70;;;;;;5013789;28;20041;-23
2021/12/27 06:50:14;;;;;;;12.13;8.80;;;6.40;75.80;;;;;;5013690;28;20044;-23
2021/12/27 06:52:41;;;;;;;8.93;5.43;;;6.40;75.80;;;;;;5013880;28;20113;-23
2021/12/27 06:55:08;;;;;;;12.95;8.23;;;6.50;75.80;;;;;;5013480;28;20045;-23
2021/12/27 06:57:37;;;;;;;8.02;5.32;;;6.50;75.80;;;;;;5013869;28;20022;-24
2021/12/27 07:00:10;;;;;;;15.27;9.82;;;6.60;75.80;;;;;;5013934;28;20064;-24
2021/12/27 07:02:36;;;;;;;20.13;13.07;;;6.60;75.80;;;;;;5013891;28;20076;-23
2021/12/27 07:05:04;;;;;;;20.73;12.43;;;6.60;76.10;;;;;;5013564;28;20418;-24
2021/12/27 07:07:30;;;;;;;22.63;15.48;;;6.60;75.90;;;;;;5013700;28;20360;-23
2021/12/27 07:09:56;;;;;;;23.73;17.17;;;6.60;76.00;;;;;;5013841;28;20056;-26
2021/12/27 07:12:23;;;;;;;19.75;13.68;;;6.60;76.00;;;;;;5013202;28;20029;-25
2021/12/27 07:14:49;;;;;;;14.80;9.68;;;6.60;76.10;;;;;;5013867;28;20042;-23
2021/12/27 07:17:16;;;;;;;12.75;7.75;;;6.60;76.00;;;;;;5013879;28;20393;-23
2021/12/27 07:19:45;;;;;;;14.48;9.40;;;6.60;76.00;;;;;;5013628;28;20413;-24
2021/12/27 07:22:11;;;;;;;15.93;10.02;;;6.70;76.00;;;;;;5013225;28;20551;-25
2021/12/27 07:24:37;;;;;;;13.07;8.75;;;6.70;76.00;;;;;;5013296;28;20058;-24
2021/12/27 07:27:04;;;;;;;10.95;6.75;;;6.70;76.00;;;;;;5013257;28;20028;-24
2021/12/27 07:29:30;;;;;;;13.52;7.43;;;6.80;75.90;;;;;;5013271;28;20026;-24
2021/12/27 07:31:56;;;;;;;21.02;13.02;;;6.90;75.90;;;;;;5013880;28;20026;-23
2021/12/27 07:34:24;;;;;;;16.17;11.52;;;6.90;75.80;;;;;;5013743;28;20041;-23
2021/12/27 07:36:55;;;;;;;12.65;7.90;;;6.90;75.80;;;;;;5013176;28;20459;-25
2021/12/27 07:39:26;;;;;;;15.05;10.23;;;6.90;75.70;;;;;;5013444;28;20033;-24
2021/12/27 07:41:53;;;;;;;12.57;8.15;;;7.00;75.60;;;;;;5013190;28;20030;-24
2021/12/27 07:44:20;;;;;;;12.80;9.48;;;7.00;75.60;;;;;;5014990;28;20025;-23
2021/12/27 07:46:46;;;;;;;13.80;10.00;;;7.10;75.60;;;;;;5017166;28;20116;-23
2021/12/27 07:49:14;;;;;;;15.65;9.48;;;7.10;75.60;;;;;;5017054;28;20473;-23
2021/12/27 07:51:40;;;;;;;15.07;10.15;;;7.10;75.70;;;;;;5017013;28;20098;-23
2021/12/27 07:54:08;;;;;;;12.93;7.38;;;7.20;75.60;;;;;;5017110;28;20044;-23
2021/12/27 07:56:34;;;;;;;17.27;11.65;;;7.20;75.50;;;;;;5016662;28;20059;-23
2021/12/27 07:59:04;;;;;;;17.98;11.35;;;7.20;75.50;;;;;;5017313;28;20077;-23
2021/12/27 08:01:32;;;;;;;25.67;16.40;;;7.30;75.50;;;;;;5017142;28;20029;-23
2021/12/27 08:03:58;;;;;;;21.90;13.93;;;7.30;75.40;;;;;;5015665;28;20032;-23
2021/12/27 08:06:24;;;;;;;16.40;12.05;;;7.40;75.40;;;;;;5016604;28;20434;-23
2021/12/27 08:08:50;;;;;;;20.80;14.13;;;7.40;75.40;;;;;;5016917;28;20132;-23
2021/12/27 08:11:16;;;;;;;12.18;7.88;;;7.40;75.30;;;;;;5016736;28;20057;-23
2021/12/27 08:13:42;;;;;;;12.73;8.07;;;7.50;75.30;;;;;;5016774;28;20034;-23
2021/12/27 08:16:12;;;;;;;11.63;7.75;;;7.50;75.30;;;;;;5016705;28;20025;-23
2021/12/27 08:18:41;;;;;;;17.48;11.23;;;7.60;75.20;;;;;;5016767;28;20430;-24
2021/12/27 08:21:08;;;;;;;19.33;12.68;;;7.60;75.30;;;;;;5016448;28;20060;-24
2021/12/27 08:23:34;;;;;;;18.17;12.18;;;7.70;75.30;;;;;;5016428;28;20510;-23
2021/12/27 08:26:00;;;;;;;15.35;10.25;;;7.80;75.20;;;;;;5016495;28;20033;-23
2021/12/27 08:28:26;;;;;;;19.45;13.68;;;7.80;75.10;;;;;;5016030;28;20117;-24
2021/12/27 08:30:52;;;;;;;20.02;14.68;;;7.80;75.00;;;;;;5014974;28;20026;-23
2021/12/27 08:33:18;;;;;;;23.17;16.00;;;7.80;75.10;;;;;;5014904;28;20033;-23
2021/12/27 08:35:43;;;;;;;18.52;12.73;;;7.90;75.20;;;;;;5015989;28;20413;-23
2021/12/27 08:38:09;;;;;;;20.85;15.30;;;7.90;75.10;;;;;;5016151;28;20022;-24
2021/12/27 08:40:35;;;;;;;19.67;11.70;;;7.90;75.00;;;;;;5015829;28;20037;-24
2021/12/27 08:43:04;;;;;;;23.52;14.68;;;7.90;75.00;;;;;;5015998;28;20029;-23
2021/12/27 08:45:30;;;;;;;17.10;12.05;;;8.00;75.00;;;;;;5016850;28;20101;-23
2021/12/27 08:47:57;;;;;;;15.48;9.90;;;8.10;74.90;;;;;;5015744;28;20041;-23
2021/12/27 08:50:23;;;;;;;18.10;12.18;;;8.10;74.90;;;;;;5016060;28;20034;-24
2021/12/27 08:52:50;;;;;;;31.60;21.40;;;8.20;74.90;;;;;;5014621;28;20026;-24
2021/12/27 08:55:16;;;;;;;51.72;29.95;;;8.30;75.00;;;;;;5014293;28;20034;-24
2021/12/27 08:57:43;;;;;;;26.55;16.38;;;8.30;74.80;;;;;;5015766;28;20033;-24
2021/12/27 09:00:11;;;;;;;28.73;18.30;;;8.40;74.70;;;;;;5016060;28;20022;-25
2021/12/27 09:02:38;;;;;;;24.73;16.25;;;8.40;74.60;;;;;;5016220;28;20092;-25
2021/12/27 09:05:07;;;;;;;23.52;15.50;;;8.50;74.60;;;;;;5014476;28;20022;-24
2021/12/27 09:07:33;;;;;;;32.03;21.60;;;8.50;74.60;;;;;;5015600;28;20026;-24
2021/12/27 09:09:59;;;;;;;29.60;18.45;;;8.50;74.60;;;;;;5015835;28;20080;-24
2021/12/27 09:12:26;;;;;;;20.48;14.77;;;8.60;74.60;;;;;;5015863;28;20026;-24
2021/12/27 09:14:52;;;;;;;27.60;19.00;;;8.60;74.60;;;;;;5015735;28;20030;-25
2021/12/27 09:17:19;;;;;;;23.38;16.30;;;8.60;74.70;;;;;;5015406;28;20504;-24
2021/12/27 09:19:45;;;;;;;23.15;15.63;;;8.70;74.60;;;;;;5015391;28;20061;-24
2021/12/27 09:22:13;;;;;;;20.40;13.38;;;8.70;74.60;;;;;;5015249;28;20032;-24
2021/12/27 09:24:40;;;;;;;24.30;15.82;;;8.70;74.50;;;;;;5015584;28;20030;-24
2021/12/27 09:27:06;;;;;;;26.88;18.50;;;8.80;74.30;;;;;;5015148;28;20033;-24
2021/12/27 09:29:32;;;;;;;15.55;9.55;;;8.80;74.30;;;;;;5015498;28;20033;-25
2021/12/27 09:31:58;;;;;;;24.77;15.15;;;8.90;74.20;;;;;;5013953;28;20470;-24
2021/12/27 09:34:24;;;;;;;15.05;9.80;;;8.90;74.20;;;;;;5014905;28;20390;-24
2021/12/27 09:36:50;;;;;;;15.05;9.02;;;8.90;74.20;;;;;;5015359;28;20029;-24
2021/12/27 09:39:16;;;;;;;21.75;15.35;;;9.00;74.20;;;;;;5015124;28;20123;-24
2021/12/27 09:41:42;;;;;;;20.95;13.68;;;9.10;74.10;;;;;;5013946;28;20036;-25
2021/12/27 09:44:08;;;;;;;13.60;9.25;;;9.20;74.00;;;;;;5015258;28;20022;-24
2021/12/27 09:46:35;;;;;;;17.25;11.65;;;9.30;73.90;;;;;;5014787;28;20054;-24
2021/12/27 09:49:07;;;;;;;19.17;12.85;;;9.30;73.80;;;;;;5014802;28;20057;-23
2021/12/27 09:51:34;;;;;;;18.30;13.02;;;9.40;73.60;;;;;;5015168;28;20069;-24
2021/12/27 09:54:01;;;;;;;20.95;14.32;;;9.50;73.50;;;;;;5014663;28;20073;-24
2021/12/27 09:56:27;;;;;;;20.33;13.52;;;9.60;73.20;;;;;;5014346;28;20053;-23
2021/12/27 09:58:54;;;;;;;21.02;13.70;;;9.60;73.10;;;;;;5014632;28;20069;-24
2021/12/27 10:01:20;;;;;;;20.35;13.73;;;9.60;73.00;;;;;;5014630;28;20555;-24
2021/12/27 10:03:55;;;;;;;24.40;15.68;;;9.70;72.90;;;;;;5014575;28;20028;-25
2021/12/27 10:06:24;;;;;;;27.85;19.55;;;9.80;72.80;;;;;;5014260;28;20109;-24
2021/12/27 10:08:55;;;;;;;18.98;12.52;;;9.80;72.70;;;;;;5015069;28;20482;-24
2021/12/27 10:11:25;;;;;;;29.75;19.67;;;9.80;72.70;;;;;;5014591;28;20472;-24
2021/12/27 10:14:14;;;;;;;24.45;17.58;;;9.90;72.60;;;;;;5014570;28;20036;-24
2021/12/27 10:16:41;;;;;;;27.23;19.48;;;9.90;72.40;;;;;;5014347;28;20105;-25
2021/12/27 10:19:10;;;;;;;21.30;15.60;;;9.90;72.30;;;;;;5014905;28;20198;-25
2021/12/27 10:21:41;;;;;;;18.52;12.63;;;9.90;72.40;;;;;;5014529;28;20024;-24
2021/12/27 10:24:19;;;;;;;21.63;15.38;;;9.90;72.60;;;;;;5014534;28;20030;-25
2021/12/27 10:26:50;;;;;;;22.55;14.52;;;9.90;72.60;;;;;;5014437;28;20026;-24
2021/12/27 10:29:17;;;;;;;16.55;10.57;;;9.90;72.60;;;;;;5014109;28;20466;-24
2021/12/27 10:31:55;;;;;;;24.65;16.88;;;10.00;72.60;;;;;;5014057;28;20044;-24
2021/12/27 10:34:24;;;;;;;19.70;13.13;;;10.00;72.30;;;;;;5014353;28;20030;-24
2021/12/27 10:37:00;;;;;;;18.15;12.18;;;10.10;72.20;;;;;;5014031;28;20355;-24
2021/12/27 10:39:48;;;;;;;21.73;15.23;;;10.20;72.20;;;;;;5013936;28;20121;-24
2021/12/27 10:42:17;;;;;;;20.73;15.00;;;10.30;72.00;;;;;;5013621;28;20430;-23
2021/12/27 10:44:44;;;;;;;19.50;13.80;;;10.30;71.70;;;;;;5013822;28;20113;-24
2021/12/27 10:47:38;;;;;;;19.27;14.63;;;10.40;71.00;;;;;;5013577;28;20050;-24
2021/12/27 10:50:13;;;;;;;18.42;12.50;;;10.40;71.00;;;;;;5013111;28;20037;-24
2021/12/27 10:52:52;;;;;;;16.38;10.48;;;10.40;70.80;;;;;;5014042;28;20104;-24
2021/12/27 10:55:31;;;;;;;14.65;9.88;;;10.40;70.30;;;;;;5014069;28;20081;-24
2021/12/27 10:58:23;;;;;;;16.58;11.77;;;10.50;70.60;;;;;;5014097;28;20073;-24
2021/12/27 11:00:55;;;;;;;23.25;13.98;;;10.50;70.60;;;;;;5013900;28;20022;-24
2021/12/27 11:03:28;;;;;;;15.93;11.23;;;10.60;70.50;;;;;;5013665;28;20026;-24
2021/12/27 11:05:55;;;;;;;15.95;10.90;;;10.60;70.10;;;;;;5013808;28;20386;-24
2021/12/27 11:08:21;;;;;;;14.32;9.30;;;10.60;70.50;;;;;;5013290;28;20393;-24
2021/12/27 11:10:47;;;;;;;11.32;8.10;;;10.70;70.10;;;;;;5013742;28;20034;-24
2021/12/27 11:13:13;;;;;;;13.75;9.00;;;10.70;69.90;;;;;;5013700;28;20444;-24
2021/12/27 11:15:40;;;;;;;7.88;5.18;;;10.80;70.00;;;;;;5013604;28;20037;-24
2021/12/27 11:18:07;;;;;;;11.05;7.22;;;10.80;70.40;;;;;;5012997;28;20030;-24
2021/12/27 11:20:35;;;;;;;15.32;10.85;;;10.80;70.20;;;;;;5012017;28;20029;-24
2021/12/27 11:23:02;;;;;;;17.38;12.10;;;10.80;69.90;;;;;;5013681;28;20033;-24
2021/12/27 11:25:36;;;;;;;17.17;12.40;;;10.90;70.00;;;;;;5013240;28;20037;-25
2021/12/27 11:28:04;;;;;;;11.60;7.53;;;10.90;69.70;;;;;;5013350;28;20029;-24
2021/12/27 11:30:34;;;;;;;17.70;12.52;;;10.90;70.00;;;;;;5013299;28;20969;-24
2021/12/27 11:33:08;;;;;;;14.90;10.25;;;11.00;70.00;;;;;;5013672;28;20532;-24
2021/12/27 11:35:38;;;;;;;9.73;5.78;;;11.00;69.90;;;;;;5013165;28;20038;-24
2021/12/27 11:38:05;;;;;;;8.15;5.07;;;11.00;70.00;;;;;;5013191;28;20060;-24
2021/12/27 11:40:41;;;;;;;10.68;6.75;;;11.10;69.90;;;;;;5013232;28;20038;-24
2021/12/27 11:43:08;;;;;;;10.63;6.80;;;11.20;69.70;;;;;;5013339;28;20022;-24
2021/12/27 11:45:46;;;;;;;9.63;6.70;;;11.30;69.70;;;;;;5012387;28;20457;-24
2021/12/27 11:48:16;;;;;;;13.55;9.18;;;11.40;69.40;;;;;;5013360;28;20108;-24
2021/12/27 11:50:57;;;;;;;14.73;10.15;;;11.40;68.90;;;;;;5014050;28;20049;-25
2021/12/27 11:53:33;;;;;;;17.27;11.60;;;11.50;68.30;;;;;;5013777;28;20026;-25
2021/12/27 11:56:01;;;;;;;11.88;8.30;;;11.60;67.70;;;;;;5013298;28;20054;-25
2021/12/27 11:58:35;;;;;;;11.02;7.63;;;11.70;68.30;;;;;;5011650;28;20079;-25
2021/12/27 12:01:24;;;;;;;9.07;6.00;;;11.70;68.50;;;;;;5013382;28;20077;-25
2021/12/27 12:03:54;;;;;;;11.50;7.60;;;11.80;68.00;;;;;;5012847;28;20390;-25
2021/12/27 12:06:41;;;;;;;14.85;10.25;;;11.90;67.90;;;;;;5012764;28;20022;-24
2021/12/27 12:09:19;;;;;;;12.23;8.45;;;11.90;67.50;;;;;;5013181;28;20103;-25
2021/12/27 12:11:58;;;;;;;13.95;8.95;;;11.90;67.70;;;;;;5013102;28;20030;-25
2021/12/27 12:14:34;;;;;;;16.02;11.27;;;12.00;67.30;;;;;;5012857;28;20057;-24
2021/12/27 12:17:04;;;;;;;13.20;9.68;;;12.10;66.80;;;;;;5013470;28;20376;-24
2021/12/27 12:19:44;;;;;;;13.40;9.52;;;12.30;66.70;;;;;;5013629;28;20034;-24
2021/12/27 12:22:46;;;;;;;18.52;11.85;;;12.50;65.30;;;;;;5013679;28;20022;-24
2021/12/27 12:25:23;;;;;;;14.88;11.02;;;12.80;64.80;;;;;;5011021;28;20093;-24
2021/12/27 12:27:50;;;;;;;15.05;10.02;;;13.10;64.60;;;;;;5010686;28;20030;-24
2021/12/27 12:30:17;;;;;;;12.32;8.93;;;13.30;64.30;;;;;;4997080;28;20126;-26
2021/12/27 12:33:12;;;;;;;13.02;8.52;;;13.40;64.50;;;;;;5014697;28;20120;-25
2021/12/27 12:35:42;;;;;;;7.38;4.93;;;13.40;63.80;;;;;;5014206;28;20073;-25
2021/12/27 12:38:19;;;;;;;11.68;6.97;;;13.40;64.50;;;;;;4997784;28;20034;-25
2021/12/27 12:40:59;;;;;;;8.85;6.15;;;13.50;64.00;;;;;;5014471;28;20039;-25
2021/12/27 12:43:39;;;;;;;8.60;5.88;;;13.60;64.20;;;;;;5014158;28;20386;-25
2021/12/27 12:46:22;;;;;;;7.75;4.95;;;13.70;64.00;;;;;;5014106;28;20076;-25
2021/12/27 12:49:11;;;;;;;10.80;7.22;;;13.70;64.20;;;;;;5013767;28;20065;-25
2021/12/27 12:51:53;;;;;;;12.82;9.05;;;13.80;63.80;;;;;;5014623;28;20105;-25
2021/12/27 12:54:26;;;;;;;9.82;6.93;;;13.90;62.90;;;;;;5013742;28;20038;-25
2021/12/27 12:57:19;;;;;;;10.10;7.03;;;13.90;63.40;;;;;;4997285;28;20489;-25
2021/12/27 12:59:54;;;;;;;9.65;6.10;;;14.00;63.20;;;;;;5015333;28;20030;-24
2021/12/27 13:02:30;;;;;;;9.82;6.95;;;14.10;63.20;;;;;;5015594;28;20537;-24
2021/12/27 13:05:03;;;;;;;11.60;8.73;;;14.20;62.70;;;;;;5015750;28;20461;-24
2021/12/27 13:07:34;;;;;;;10.40;7.38;;;14.20;62.10;;;;;;5015632;28;20030;-24
2021/12/27 13:10:06;;;;;;;8.50;6.15;;;14.20;62.00;;;;;;5015776;28;20022;-24
2021/12/27 13:12:33;;;;;;;10.88;7.97;;;14.20;62.20;;;;;;5015494;28;20030;-24
2021/12/27 13:15:14;;;;;;;7.32;5.03;;;14.10;62.50;;;;;;5015897;28;20038;-24
2021/12/27 13:17:40;;;;;;;8.45;5.55;;;14.00;62.90;;;;;;5015657;28;20034;-25
2021/12/27 13:20:10;;;;;;;7.45;5.40;;;14.00;63.20;;;;;;5015982;28;20374;-25
2021/12/27 13:22:41;;;;;;;7.90;5.38;;;13.90;63.50;;;;;;5014795;28;20042;-24
2021/12/27 13:25:08;;;;;;;7.22;4.88;;;13.80;63.70;;;;;;5015361;28;20544;-25
2021/12/27 13:27:36;;;;;;;7.22;5.25;;;13.70;63.80;;;;;;5015189;28;20030;-25
2021/12/27 13:30:13;;;;;;;7.05;4.93;;;13.60;63.90;;;;;;5015483;28;20045;-24
2021/12/27 13:32:43;;;;;;;11.65;7.60;;;13.60;64.10;;;;;;5015589;28;20091;-25
2021/12/27 13:35:13;;;;;;;9.13;6.28;;;13.50;64.10;;;;;;5013911;28;20042;-25
2021/12/27 13:37:40;;;;;;;8.90;5.78;;;13.50;64.10;;;;;;5015555;28;20022;-24
2021/12/27 13:40:13;;;;;;;12.65;8.40;;;13.50;64.10;;;;;;5014913;28;20033;-25
2021/12/27 13:42:41;;;;;;;16.55;9.20;;;13.40;63.90;;;;;;5014749;28;20030;-25
2021/12/27 13:45:17;;;;;;;14.45;8.35;;;13.30;64.00;;;;;;5015008;28;20018;-25
2021/12/27 13:48:00;;;;;;;8.38;5.47;;;13.20;63.40;;;;;;5014860;28;20053;-26